Time;durP1;ratioP1;P1;durP2;ratioP2;P2;SDS_P1;SDS_P2;PMS_P1;PMS_P2;Temp;Humidity;BMP_temperature;BMP_pressure;BME280_temperature;BME280_humidity;BME280_pressure;Samples;Min_cycle;Max_cycle;Signal;HPM_P1;HPM_P2
2022/06/29 00:00:04;;;;;;;;;;;;;;;27.93;42.79;94196.97;5014633;28;9093;-62
2022/06/29 00:02:44;;;;;;;;;;;;;;;27.94;42.99;94189.44;5013494;28;7251;-62
2022/06/29 00:05:23;;;;;;;;;;;;;;;27.94;42.44;94187.44;5018660;28;9558;-62
2022/06/29 00:07:52;;;;;;;;;;;;;;;27.92;42.97;94192.00;5031047;28;7211;-62
2022/06/29 00:10:23;;;;;;;;;;;;;;;27.93;42.71;94208.03;5027151;28;7458;-62
2022/06/29 00:12:52;;;;;;;;;;;;;;;27.93;42.79;94213.56;5023231;28;7160;-62
2022/06/29 00:15:27;;;;;;;;;;;;;;;27.93;42.97;94201.75;5014846;28;8910;-62
2022/06/29 00:17:57;;;;;;;;;;;;;;;27.93;42.86;94196.22;5023406;28;7262;-63
2022/06/29 00:20:38;;;;;;;;;;;;;;;27.91;43.25;94196.78;5024815;28;7000;-62
2022/06/29 00:23:04;;;;;;;;;;;;;;;27.91;43.01;94201.53;5020363;28;7283;-63
2022/06/29 00:25:39;;;;;;;;;;;;;;;27.89;42.58;94207.63;5023584;28;6940;-63
2022/06/29 00:28:05;;;;;;;;;;;;;;;27.90;42.84;94200.81;5015838;28;9448;-62
2022/06/29 00:30:31;;;;;;;;;;;;;;;27.89;42.61;94193.03;5023250;28;6994;-63
2022/06/29 00:33:04;;;;;;;;;;;;;;;27.91;42.96;94184.97;5026516;28;7238;-63
2022/06/29 00:35:57;;;;;;;;;;;;;;;27.91;42.93;94179.44;5028022;28;8859;-62
2022/06/29 00:38:23;;;;;;;;;;;;;;;27.90;42.36;94175.19;4974784;28;7171;-63
2022/06/29 00:40:51;;;;;;;;;;;;;;;27.90;42.70;94175.19;4975265;28;7524;-63
2022/06/29 00:43:23;;;;;;;;;;;;;;;27.89;43.27;94176.47;4961018;28;7183;-63
2022/06/29 00:45:50;;;;;;;;;;;;;;;27.89;42.85;94174.44;4967460;28;7212;-63
2022/06/29 00:48:17;;;;;;;;;;;;;;;27.89;43.09;94179.22;4985123;28;9710;-63
2022/06/29 00:50:46;;;;;;;;;;;;;;;27.88;42.69;94186.03;4969137;28;7186;-63
2022/06/29 00:53:17;;;;;;;;;;;;;;;27.88;43.01;94172.22;4984750;28;8590;-63
2022/06/29 00:55:47;;;;;;;;;;;;;;;27.87;42.72;94179.75;4984550;28;8788;-63
2022/06/29 00:58:20;;;;;;;;;;;;;;;27.87;42.76;94182.53;4968896;28;8170;-62
2022/06/29 01:00:48;;;;;;;;;;;;;;;27.88;42.65;94174.97;4959914;28;7837;-63
2022/06/29 01:03:19;;;;;;;;;;;;;;;27.88;42.99;94183.28;4962902;28;8682;-63
2022/06/29 01:05:47;;;;;;;;;;;;;;;27.88;42.61;94181.25;4963809;28;9436;-63
2022/06/29 01:08:13;;;;;;;;;;;;;;;27.89;42.88;94182.75;4981774;28;9472;-62
2022/06/29 01:10:39;;;;;;;;;;;;;;;27.90;43.03;94175.94;4969027;28;8792;-63
2022/06/29 01:13:05;;;;;;;;;;;;;;;27.90;42.69;94173.19;4968854;28;9139;-63
2022/06/29 01:15:31;;;;;;;;;;;;;;;27.92;42.93;94176.16;4998220;28;7171;-63
2022/06/29 01:17:57;;;;;;;;;;;;;;;27.92;42.24;94172.63;5021294;28;7758;-63
2022/06/29 01:20:26;;;;;;;;;;;;;;;27.92;42.62;94172.63;5024259;28;7391;-63
2022/06/29 01:22:54;;;;;;;;;;;;;;;27.91;42.71;94169.13;5026509;28;7008;-63
2022/06/29 01:25:22;;;;;;;;;;;;;;;27.92;42.08;94175.41;5011135;28;7191;-63
2022/06/29 01:27:48;;;;;;;;;;;;;;;27.91;42.78;94171.88;5023605;28;7252;-63
2022/06/29 01:30:14;;;;;;;;;;;;;;;27.91;42.94;94169.13;5013839;28;7158;-63
2022/06/29 01:32:40;;;;;;;;;;;;;;;27.90;42.82;94166.91;4998747;28;7413;-63
2022/06/29 01:35:09;;;;;;;;;;;;;;;27.92;42.68;94161.59;5008530;28;6985;-63
2022/06/29 01:37:37;;;;;;;;;;;;;;;27.88;43.22;94153.63;5017054;28;9253;-63
2022/06/29 01:40:07;;;;;;;;;;;;;;;27.89;42.58;94159.88;5014212;28;9393;-63
2022/06/29 01:42:33;;;;;;;;;;;;;;;27.89;43.08;94151.59;5025877;28;7513;-63
2022/06/29 01:44:59;;;;;;;;;;;;;;;27.91;42.76;94157.31;5013295;28;9040;-63
2022/06/29 01:47:28;;;;;;;;;;;;;;;27.88;42.45;94159.16;5022807;28;7242;-63
2022/06/29 01:49:54;;;;;;;;;;;;;;;27.89;42.50;94159.88;5013876;28;7195;-63
2022/06/29 01:52:22;;;;;;;;;;;;;;;27.85;42.97;94149.16;5019557;28;6969;-63
2022/06/29 01:54:52;;;;;;;;;;;;;;;27.87;42.93;94156.91;5021650;28;7114;-63
2022/06/29 01:57:18;;;;;;;;;;;;;;;27.89;42.99;94148.81;5008097;28;9136;-63
2022/06/29 01:59:46;;;;;;;;;;;;;;;27.87;42.56;94154.88;5015259;28;7164;-63
2022/06/29 02:02:15;;;;;;;;;;;;;;;27.85;42.68;94142.88;5012429;28;7322;-63
2022/06/29 02:04:42;;;;;;;;;;;;;;;27.86;42.69;94150.63;5010985;28;9512;-63
2022/06/29 02:07:08;;;;;;;;;;;;;;;27.86;42.86;94149.91;5015806;28;7433;-63
2022/06/29 02:09:35;;;;;;;;;;;;;;;27.85;42.81;94146.38;5024352;28;7270;-63
2022/06/29 02:12:16;;;;;;;;;;;;;;;27.84;42.58;94141.41;5019317;28;9342;-63
2022/06/29 02:15:01;;;;;;;;;;;;;;;27.84;42.73;94144.16;5007845;28;7184;-63
2022/06/29 02:17:29;;;;;;;;;;;;;;;27.82;42.92;94144.66;5031898;28;7138;-63
2022/06/29 02:20:05;;;;;;;;;;;;;;;27.81;42.76;94150.75;5032509;28;7107;-63
2022/06/29 02:22:31;;;;;;;;;;;;;;;27.78;42.95;94144.25;5011169;28;7013;-63
2022/06/29 02:24:58;;;;;;;;;;;;;;;27.77;42.81;94142.03;5020225;28;7317;-63
2022/06/29 02:27:41;;;;;;;;;;;;;;;27.77;42.99;94142.03;5026610;28;8781;-63
2022/06/29 02:34:43;;;;;;;;;;;;;;;27.76;43.07;94144.03;5013582;28;9124;-63
2022/06/29 02:36:06;;;;;;;;;;;;;;;27.76;43.20;94144.03;5019400;28;7272;-63
2022/06/29 02:38:32;;;;;;;;;;;;;;;27.73;42.20;94139.56;5023246;28;7014;-63
2022/06/29 02:41:06;;;;;;;;;;;;;;;27.73;43.01;94136.78;5020610;28;7996;-63
2022/06/29 02:43:38;;;;;;;;;;;;;;;27.74;42.95;94138.31;5020737;28;7107;-63
2022/06/29 02:46:13;;;;;;;;;;;;;;;27.74;42.58;94143.06;5023748;28;9047;-63
2022/06/29 02:48:51;;;;;;;;;;;;;;;27.71;42.79;94133.81;5031884;28;7224;-63
2022/06/29 02:51:17;;;;;;;;;;;;;;;27.71;42.76;94139.34;5021153;28;7292;-63
2022/06/29 02:53:43;;;;;;;;;;;;;;;27.71;42.91;94133.09;5020284;28;7325;-62
2022/06/29 02:56:17;;;;;;;;;;;;;;;27.70;42.99;94126.81;5021000;28;7378;-63
2022/06/29 02:58:43;;;;;;;;;;;;;;;27.68;42.58;94123.09;5027728;28;7253;-63
2022/06/29 03:01:09;;;;;;;;;;;;;;;27.67;43.08;94125.13;5020771;28;7248;-63
2022/06/29 03:03:35;;;;;;;;;;;;;;;27.67;43.00;94121.59;5012051;28;9080;-63
2022/06/29 03:06:06;;;;;;;;;;;;;;;27.69;42.73;94127.38;5013501;28;7321;-63
2022/06/29 03:08:32;;;;;;;;;;;;;;;27.68;42.96;94129.38;5007142;28;9026;-63
2022/06/29 03:11:08;;;;;;;;;;;;;;;27.66;42.92;94128.41;5012513;28;9223;-63
2022/06/29 03:13:52;;;;;;;;;;;;;;;27.64;42.93;94129.69;5027703;28;7622;-62
2022/06/29 03:16:20;;;;;;;;;;;;;;;27.66;43.08;94126.41;5023395;28;7200;-63
2022/06/29 03:19:05;;;;;;;;;;;;;;;27.66;43.02;94118.13;5017164;28;9128;-63
2022/06/29 03:21:40;;;;;;;;;;;;;;;27.64;43.16;94120.66;5024048;28;7797;-63
2022/06/29 03:24:11;;;;;;;;;;;;;;;27.66;42.90;94117.34;5028676;28;7291;-63
2022/06/29 03:26:44;;;;;;;;;;;;;;;27.65;43.46;94113.84;5014634;28;9436;-62
2022/06/29 03:29:19;;;;;;;;;;;;;;;27.64;42.95;94109.59;5011317;28;9180;-63
2022/06/29 03:32:02;;;;;;;;;;;;;;;27.67;43.05;94111.28;5013015;28;7583;-63
2022/06/29 03:34:39;;;;;;;;;;;;;;;27.66;42.84;94111.84;5033955;28;9421;-63
2022/06/29 03:37:08;;;;;;;;;;;;;;;27.66;42.94;94109.06;5028110;28;9175;-63
2022/06/29 03:39:42;;;;;;;;;;;;;;;27.63;43.17;94111.63;5036111;28;7068;-62
2022/06/29 03:42:08;;;;;;;;;;;;;;;27.64;42.85;94109.59;5016167;28;7090;-63
2022/06/29 03:44:39;;;;;;;;;;;;;;;27.64;42.81;94121.38;5015179;28;8918;-63
2022/06/29 03:47:10;;;;;;;;;;;;;;;27.64;42.97;94124.16;5018299;28;9044;-63
2022/06/29 03:49:40;;;;;;;;;;;;;;;27.64;42.76;94118.63;5013239;28;7615;-62
2022/06/29 03:52:06;;;;;;;;;;;;;;;27.66;42.90;94125.66;5030356;28;7199;-63
2022/06/29 03:54:35;;;;;;;;;;;;;;;27.64;42.63;94124.16;5012126;28;9236;-63
2022/06/29 03:57:35;;;;;;;;;;;;;;;27.64;42.80;94121.38;5022641;28;7202;-63
2022/06/29 04:00:03;;;;;;;;;;;;;;;27.63;42.60;94121.94;4993148;28;7125;-63
2022/06/29 04:02:46;;;;;;;;;;;;;;;27.63;42.57;94125.44;4974987;28;9173;-63
2022/06/29 04:05:21;;;;;;;;;;;;;;;27.63;42.73;94128.19;4984255;28;7191;-63
2022/06/29 04:07:49;;;;;;;;;;;;;;;27.63;42.84;94119.91;4962393;28;9132;-63
2022/06/29 04:10:19;;;;;;;;;;;;;;;27.61;43.22;94119.69;4983206;28;7119;-63
2022/06/29 04:12:48;;;;;;;;;;;;;;;27.59;42.67;94122.25;4971006;28;9437;-62
2022/06/29 04:15:13;;;;;;;;;;;;;;;27.61;43.17;94130.75;4966867;28;9157;-63
2022/06/29 04:17:40;;;;;;;;;;;;;;;27.62;42.90;94123.94;4961080;28;7296;-63
2022/06/29 04:23:02;;;;;;;;;;;;;;;27.58;42.59;94126.28;4992851;28;9064;-63
2022/06/29 04:25:30;;;;;;;;;;;;;;;27.57;42.37;94124.06;4974851;28;8808;-63
2022/06/29 04:28:06;;;;;;;;;;;;;;;27.57;42.62;94122.03;4968723;28;7323;-63
2022/06/29 04:30:34;;;;;;;;;;;;;;;27.57;43.09;94129.56;4986681;28;7086;-63
2022/06/29 04:33:00;;;;;;;;;;;;;;;27.56;42.65;94126.06;4970182;28;9352;-62
2022/06/29 04:35:31;;;;;;;;;;;;;;;27.54;43.24;94125.84;4989319;28;7227;-63
2022/06/29 04:37:56;;;;;;;;;;;;;;;27.53;43.58;94132.63;5047570;28;7377;-63
2022/06/29 04:40:41;;;;;;;;;;;;;;;27.55;42.97;94138.41;5031479;28;7070;-62
2022/06/29 04:43:37;;;;;;;;;;;;;;;27.55;42.98;94127.34;5031239;28;7275;-62
2022/06/29 04:46:23;;;;;;;;;;;;;;;27.54;43.32;94125.84;4973946;28;9106;-63
2022/06/29 04:48:55;;;;;;;;;;;;;;;27.56;42.83;94128.06;4990378;28;6871;-62
2022/06/29 04:51:25;;;;;;;;;;;;;;;27.54;42.64;94131.38;4970179;28;7068;-62
2022/06/29 04:53:56;;;;;;;;;;;;;;;27.54;43.09;94131.38;4973439;28;7176;-62
2022/06/29 04:56:24;;;;;;;;;;;;;;;27.55;43.15;94127.34;4971181;28;9374;-62
2022/06/29 04:58:53;;;;;;;;;;;;;;;27.55;42.78;94132.88;4989099;28;7235;-62
2022/06/29 05:01:33;;;;;;;;;;;;;;;27.58;42.96;94126.28;4989223;28;7181;-62
2022/06/29 05:03:59;;;;;;;;;;;;;;;27.59;42.97;94132.56;4989791;28;7619;-62
2022/06/29 05:06:35;;;;;;;;;;;;;;;27.60;43.24;94129.25;4957437;28;7037;-62
2022/06/29 05:09:11;;;;;;;;;;;;;;;27.59;43.19;94130.53;4985992;28;7075;-62
2022/06/29 05:11:43;;;;;;;;;;;;;;;27.56;43.23;94137.13;4980408;28;9199;-62
2022/06/29 05:14:10;;;;;;;;;;;;;;;27.56;43.23;94141.88;4968142;28;6979;-62
2022/06/29 05:16:37;;;;;;;;;;;;;;;27.58;42.98;94131.06;4964141;28;9267;-62
2022/06/29 05:19:06;;;;;;;;;;;;;;;27.59;43.17;94133.31;4986057;28;7603;-62
2022/06/29 05:21:37;;;;;;;;;;;;;;;27.57;43.43;94138.63;4968167;28;6989;-62
2022/06/29 05:24:03;;;;;;;;;;;;;;;27.55;43.77;94143.19;5023856;28;9044;-62
2022/06/29 05:26:29;;;;;;;;;;;;;;;27.53;43.50;94140.19;5023770;28;7333;-62
2022/06/29 05:28:55;;;;;;;;;;;;;;;27.55;43.41;94141.16;5018851;28;8845;-62
2022/06/29 05:31:31;;;;;;;;;;;;;;;27.54;43.40;94136.91;5021818;28;7532;-62
2022/06/29 05:34:23;;;;;;;;;;;;;;;27.55;43.18;94141.16;5013211;28;7288;-62
2022/06/29 05:37:04;;;;;;;;;;;;;;;27.56;43.15;94133.59;4968640;28;7228;-62
2022/06/29 05:39:30;;;;;;;;;;;;;;;27.55;43.79;94134.91;4986478;28;7236;-62
2022/06/29 05:42:12;;;;;;;;;;;;;;;27.51;43.00;94137.94;4976561;28;7262;-62
2022/06/29 05:44:43;;;;;;;;;;;;;;;27.48;43.76;94133.50;4984346;28;8086;-62
2022/06/29 05:47:37;;;;;;;;;;;;;;;27.48;43.26;94139.03;4990109;28;8852;-62
2022/06/29 05:50:04;;;;;;;;;;;;;;;27.48;43.26;94144.56;4918834;29;7339;-62
2022/06/29 05:52:30;;;;;;;;;;;;;;;27.47;43.41;94140.28;4931598;28;7990;-62
2022/06/29 05:54:57;;;;;;;;;;;;;;;27.45;43.17;94142.84;4931080;29;7261;-62
2022/06/29 05:57:24;;;;;;;;;;;;;;;27.45;43.35;94139.31;4915745;29;7148;-62
2022/06/29 06:00:01;;;;;;;;;;;;;;;27.43;43.05;94134.34;4933389;28;8942;-62
2022/06/29 06:02:42;;;;;;;;;;;;;;;27.45;43.14;94145.59;4915068;28;7184;-62
2022/06/29 06:05:10;;;;;;;;;;;;;;;27.45;43.64;94133.81;4934283;28;7276;-62
2022/06/29 06:07:36;;;;;;;;;;;;;;;27.45;43.59;94134.56;4931793;29;7582;-62
2022/06/29 06:10:03;;;;;;;;;;;;;;;27.45;43.42;94125.50;4936731;28;7247;-62
2022/06/29 06:12:38;;;;;;;;;;;;;;;27.48;45.05;94138.28;4919592;28;6931;-62
2022/06/29 06:15:13;;;;;;;;;;;;;;;27.47;43.69;94143.06;4976945;28;7214;-62
2022/06/29 06:17:49;;;;;;;;;;;;;;;27.47;43.59;94134.75;4965464;28;9246;-62
2022/06/29 06:20:16;;;;;;;;;;;;;;;27.49;43.90;94123.94;4956630;28;7479;-62
2022/06/29 06:22:44;;;;;;;;;;;;;;;27.49;43.74;94123.19;4952500;28;7297;-62
2022/06/29 06:25:20;;;;;;;;;;;;;;;27.48;43.74;94127.97;4937695;28;7338;-62
2022/06/29 06:27:57;;;;;;;;;;;;;;;27.46;44.14;94130.53;5015248;28;7139;-62
2022/06/29 06:30:24;;;;;;;;;;;;;;;27.45;44.06;94131.78;5018184;28;7275;-62
2022/06/29 06:32:50;;;;;;;;;;;;;;;27.48;44.19;94133.50;5022667;28;7083;-62
2022/06/29 06:35:26;;;;;;;;;;;;;;;27.48;44.13;94127.97;5013014;28;7377;-62
2022/06/29 06:37:53;;;;;;;;;;;;;;;27.49;44.27;94134.97;5011884;28;7360;-62
2022/06/29 06:43:06;;;;;;;;;;;;;;;27.52;43.93;94133.94;5019311;28;7250;-62
2022/06/29 06:45:34;;;;;;;;;;;;;;;27.51;44.14;94137.94;5011579;28;7088;-62
2022/06/29 06:48:00;;;;;;;;;;;;;;;27.51;44.13;94135.19;5013685;28;7210;-62
2022/06/29 06:50:30;;;;;;;;;;;;;;;27.54;44.32;94131.38;5015698;28;7044;-62
2022/06/29 06:52:56;;;;;;;;;;;;;;;27.54;44.10;94136.91;5010476;28;7115;-62
2022/06/29 06:55:25;;;;;;;;;;;;;;;27.55;44.01;94132.13;5029216;28;9317;-62
2022/06/29 06:57:51;;;;;;;;;;;;;;;27.55;43.98;94137.66;5014756;28;9207;-61
2022/06/29 07:00:17;;;;;;;;;;;;;;;27.56;43.95;94139.13;5018537;28;7298;-62
2022/06/29 07:02:43;;;;;;;;;;;;;;;27.56;44.21;94131.59;5017439;28;7422;-62
2022/06/29 07:05:09;;;;;;;;;;;;;;;27.59;44.06;94138.06;5016073;28;7319;-62
2022/06/29 07:07:35;;;;;;;;;;;;;;;27.59;43.81;94138.81;5033460;28;7042;-62
2022/06/29 07:10:08;;;;;;;;;;;;;;;27.59;43.93;94138.81;5026275;28;8724;-62
2022/06/29 07:12:37;;;;;;;;;;;;;;;27.54;43.69;94136.91;5018933;28;7238;-62
2022/06/29 07:15:06;;;;;;;;;;;;;;;27.54;43.81;94142.44;5021552;28;9106;-62
2022/06/29 07:18:03;;;;;;;;;;;;;;;27.55;44.02;94137.66;5027963;28;6976;-62
2022/06/29 07:20:31;;;;;;;;;;;;;;;27.51;43.75;94129.66;4966581;28;6929;-62
2022/06/29 07:23:08;;;;;;;;;;;;;;;27.53;44.16;94140.94;4943220;28;8778;-61
2022/06/29 07:25:34;;;;;;;;;;;;;;;27.53;44.02;94138.16;4949535;28;7262;-61
2022/06/29 07:28:01;;;;;;;;;;;;;;;27.54;43.48;94142.44;4967019;28;7220;-61
2022/06/29 07:30:27;;;;;;;;;;;;;;;27.55;43.68;94135.66;4950537;28;8989;-61
2022/06/29 07:33:10;;;;;;;;;;;;;;;27.56;43.86;94136.38;4964607;28;7259;-61
2022/06/29 07:35:37;;;;;;;;;;;;;;;27.55;43.24;94134.91;4969335;28;9092;-62
2022/06/29 07:38:09;;;;;;;;;;;;;;;27.55;43.37;94143.94;4952714;28;7391;-62
2022/06/29 07:40:35;;;;;;;;;;;;;;;27.55;43.44;94140.41;4956035;28;7256;-62
2022/06/29 07:43:56;;;;;;;;;;;;;;;27.55;43.53;94140.41;4959009;28;9077;-62
2022/06/29 07:46:24;;;;;;;;;;;;;;;27.54;43.57;94150.72;4928838;29;7268;-62
2022/06/29 07:48:50;;;;;;;;;;;;;;;27.55;43.65;94148.72;4941443;28;8661;-62
2022/06/29 07:51:16;;;;;;;;;;;;;;;27.54;43.33;94147.19;4925817;29;7301;-62
2022/06/29 07:53:42;;;;;;;;;;;;;;;27.53;43.54;94154.75;4915163;29;7254;-62
2022/06/29 07:56:18;;;;;;;;;;;;;;;27.52;43.90;94144.97;4941024;28;7236;-62
2022/06/29 07:59:00;;;;;;;;;;;;;;;27.51;43.70;94149.00;4953014;28;9057;-62
2022/06/29 08:01:37;;;;;;;;;;;;;;;27.51;43.69;94149.00;4971828;28;6990;-62
2022/06/29 08:04:03;;;;;;;;;;;;;;;27.52;43.93;94147.00;4963551;28;7294;-62
2022/06/29 08:06:33;;;;;;;;;;;;;;;27.51;43.89;94153.81;4956741;28;7431;-62
2022/06/29 08:08:59;;;;;;;;;;;;;;;27.47;44.39;94145.81;4971941;28;7071;-62
2022/06/29 08:11:45;;;;;;;;;;;;;;;27.49;43.78;94150.81;4956778;28;9151;-62
2022/06/29 08:14:26;;;;;;;;;;;;;;;27.50;43.55;94142.00;4973458;28;7543;-61
2022/06/29 08:17:04;;;;;;;;;;;;;;;27.51;43.74;94154.53;4971197;28;7342;-61
2022/06/29 08:19:41;;;;;;;;;;;;;;;27.52;44.20;94144.97;4965979;28;7163;-62
2022/06/29 08:22:15;;;;;;;;;;;;;;;27.54;44.38;94147.94;5019961;28;9110;-62
2022/06/29 08:24:41;;;;;;;;;;;;;;;27.55;44.67;94145.94;5018268;28;7459;-62
2022/06/29 08:27:08;;;;;;;;;;;;;;;27.55;44.51;94143.19;5021386;28;7265;-63
2022/06/29 08:29:43;;;;;;;;;;;;;;;27.56;44.57;94145.41;5047363;28;7238;-63
2022/06/29 08:32:11;;;;;;;;;;;;;;;27.57;44.78;94138.63;5031560;28;9348;-62
2022/06/29 08:34:39;;;;;;;;;;;;;;;27.58;44.16;94136.56;5037943;28;7348;-61
2022/06/29 08:37:07;;;;;;;;;;;;;;;27.57;44.10;94144.13;5016724;28;7256;-62
2022/06/29 08:39:38;;;;;;;;;;;;;;;27.58;44.37;94140.09;5031043;28;7463;-62
2022/06/29 08:42:09;;;;;;;;;;;;;;;27.58;44.51;94142.84;5047201;28;7498;-62
2022/06/29 08:44:39;;;;;;;;;;;;;;;27.57;44.67;94141.38;5023639;28;7861;-61
2022/06/29 08:47:10;;;;;;;;;;;;;;;27.58;44.67;94142.09;5019825;28;7228;-62
2022/06/29 08:49:44;;;;;;;;;;;;;;;27.58;44.72;94142.84;5014438;28;6963;-62
2022/06/29 08:52:12;;;;;;;;;;;;;;;27.60;44.70;94139.56;5027836;28;7326;-62
2022/06/29 08:54:43;;;;;;;;;;;;;;;27.59;44.79;94140.84;5038775;28;9125;-62
2022/06/29 08:57:13;;;;;;;;;;;;;;;27.58;44.79;94145.63;5025264;28;8756;-61
2022/06/29 08:59:39;;;;;;;;;;;;;;;27.59;44.71;94143.59;5029457;28;9011;-62
2022/06/29 09:02:05;;;;;;;;;;;;;;;27.58;44.82;94142.84;5002233;28;8740;-62
2022/06/29 09:04:31;;;;;;;;;;;;;;;27.60;44.76;94140.31;5021592;28;7265;-62
2022/06/29 09:06:57;;;;;;;;;;;;;;;27.61;44.33;94141.81;5024897;28;8943;-63
2022/06/29 09:09:24;;;;;;;;;;;;;;;27.60;44.58;94140.31;5016395;28;7431;-64
2022/06/29 09:11:55;;;;;;;;;;;;;;;27.60;44.53;94143.06;5009886;28;7248;-64
2022/06/29 09:14:25;;;;;;;;;;;;;;;27.60;44.98;94147.84;5016982;28;7072;-63
2022/06/29 09:17:32;;;;;;;;;;;;;;;27.61;44.65;94141.81;5023332;28;9392;-63
2022/06/29 09:20:06;;;;;;;;;;;;;;;27.62;44.69;94146.03;5020976;28;9214;-63
2022/06/29 09:22:43;;;;;;;;;;;;;;;27.66;44.07;94137.44;5026419;28;9093;-62
2022/06/29 09:25:27;;;;;;;;;;;;;;;27.68;44.25;94140.44;5024155;28;7251;-61
2022/06/29 09:28:18;;;;;;;;;;;;;;;27.69;43.83;94144.66;5038608;28;9083;-61
2022/06/29 09:30:46;;;;;;;;;;;;;;;27.72;43.95;94140.09;5020381;28;7249;-61
2022/06/29 09:33:13;;;;;;;;;;;;;;;27.74;43.87;94135.53;5023909;28;7197;-61
2022/06/29 09:35:40;;;;;;;;;;;;;;;27.77;43.55;94139.25;5019414;28;7188;-62
2022/06/29 09:38:38;;;;;;;;;;;;;;;27.76;43.50;94126.69;5022966;28;8800;-61
2022/06/29 09:41:27;;;;;;;;;;;;;;;27.76;43.82;94124.69;5028462;28;7359;-61
2022/06/29 09:43:54;;;;;;;;;;;;;;;27.79;43.50;94136.72;5020749;28;9449;-61
2022/06/29 09:46:31;;;;;;;;;;;;;;;27.80;43.79;94129.88;5023487;28;7005;-61
2022/06/29 09:49:07;;;;;;;;;;;;;;;27.83;43.68;94131.59;5031016;28;7417;-61
2022/06/29 09:51:34;;;;;;;;;;;;;;;27.82;43.43;94125.31;5007092;28;7236;-61
2022/06/29 09:54:08;;;;;;;;;;;;;;;27.83;43.74;94123.31;5015232;28;7562;-61
2022/06/29 09:56:45;;;;;;;;;;;;;;;27.85;43.14;94132.56;5021820;28;7368;-62
2022/06/29 09:59:23;;;;;;;;;;;;;;;27.86;43.58;94127.78;5018067;28;7098;-62
2022/06/29 10:04:51;;;;;;;;;;;;;;;27.93;43.36;94116.06;5022203;28;9059;-61
2022/06/29 10:07:18;;;;;;;;;;;;;;;27.91;43.55;94124.16;5020912;28;6989;-61
2022/06/29 10:09:44;;;;;;;;;;;;;;;27.89;43.39;94126.69;5025059;28;8750;-61
2022/06/29 10:15:31;;;;;;;;;;;;;;;27.91;44.55;94124.16;5014710;28;7134;-62
2022/06/29 10:18:11;;;;;;;;;;;;;;;27.90;45.62;94117.16;5017031;28;7181;-62
2022/06/29 10:20:46;;;;;;;;;;;;;;;27.86;45.52;94119.50;5012371;28;7233;-62
2022/06/29 10:23:45;;;;;;;;;;;;;;;27.88;44.96;94116.94;5017607;28;7266;-61
2022/06/29 10:26:43;;;;;;;;;;;;;;;27.90;44.46;94117.16;5023223;28;7283;-62
2022/06/29 10:29:22;;;;;;;;;;;;;;;27.93;44.95;94113.31;5019758;28;7228;-61
2022/06/29 10:31:56;;;;;;;;;;;;;;;27.95;45.00;94125.31;5022522;28;9153;-61
2022/06/29 10:34:32;;;;;;;;;;;;;;;27.96;44.44;94110.22;5021522;28;7254;-61
2022/06/29 10:37:25;;;;;;;;;;;;;;;28.00;44.51;94112.69;5013578;28;7962;-61
2022/06/29 10:40:00;;;;;;;;;;;;;;;27.99;44.90;94108.47;5015176;28;7352;-62
2022/06/29 10:45:54;;;;;;;;;;;;;;;28.00;44.71;94105.16;5022772;28;7115;-61
2022/06/29 10:48:31;;;;;;;;;;;;;;;28.01;44.79;94106.66;5022556;28;9104;-61
2022/06/29 10:51:11;;;;;;;;;;;;;;;28.02;44.93;94102.59;5019138;28;7307;-62
2022/06/29 10:53:37;;;;;;;;;;;;;;;28.05;44.15;94103.56;5020276;28;7488;-62
2022/06/29 10:56:03;;;;;;;;;;;;;;;28.06;44.36;94105.03;5026822;28;7929;-61
2022/06/29 10:58:33;;;;;;;;;;;;;;;28.04;44.52;94094.50;5028105;28;7270;-61
2022/06/29 11:01:02;;;;;;;;;;;;;;;28.05;44.59;94096.00;5018278;28;7229;-61
2022/06/29 11:03:30;;;;;;;;;;;;;;;28.06;44.30;94102.25;5025569;28;9287;-61
2022/06/29 11:12:01;;;;;;;;;;;;;;;28.11;44.78;94102.16;5018255;28;7511;-62
2022/06/29 11:17:47;;;;;;;;;;;;;;;28.10;44.74;94097.16;4992962;28;7419;-62
2022/06/29 11:20:23;;;;;;;;;;;;;;;28.12;44.97;94094.63;4993010;28;7296;-62
2022/06/29 11:23:12;;;;;;;;;;;;;;;28.16;44.90;94103.31;4974385;28;7146;-61
2022/06/29 11:25:49;;;;;;;;;;;;;;;28.16;44.76;94095.78;4965290;28;7959;-61
2022/06/29 11:28:28;;;;;;;;;;;;;;;28.15;44.91;94093.53;4971459;28;7086;-61
2022/06/29 11:31:15;;;;;;;;;;;;;;;28.20;44.90;94087.13;4988122;28;7253;-61
2022/06/29 11:33:46;;;;;;;;;;;;;;;28.22;44.45;94090.13;4970168;28;9103;-61
2022/06/29 11:36:17;;;;;;;;;;;;;;;28.25;44.71;94089.06;4993561;28;7214;-61
2022/06/29 11:38:55;;;;;;;;;;;;;;;28.24;44.55;94088.31;4971808;28;7442;-61
2022/06/29 11:44:27;;;;;;;;;;;;;;;28.27;44.84;94078.91;4925760;29;7575;-62
2022/06/29 11:46:55;;;;;;;;;;;;;;;28.28;44.21;94074.88;4910340;29;7140;-62
2022/06/29 11:49:39;;;;;;;;;;;;;;;28.27;44.33;94067.13;4918915;29;8623;-61
2022/06/29 11:52:13;;;;;;;;;;;;;;;28.26;44.40;94077.44;4929622;28;8648;-61
2022/06/29 11:54:49;;;;;;;;;;;;;;;28.27;44.39;94072.66;4950946;28;9092;-61
2022/06/29 11:57:19;;;;;;;;;;;;;;;28.28;43.89;94063.81;4952993;28;8023;-62
2022/06/29 11:59:47;;;;;;;;;;;;;;;28.31;44.27;94067.53;4971504;28;9015;-61
2022/06/29 12:02:16;;;;;;;;;;;;;;;28.30;43.92;94074.34;4954483;28;9277;-61
2022/06/29 12:04:45;;;;;;;;;;;;;;;28.29;44.00;94076.38;4950669;28;8871;-61
2022/06/29 12:07:17;;;;;;;;;;;;;;;28.28;43.65;94074.88;4953428;28;7272;-61
2022/06/29 12:09:54;;;;;;;;;;;;;;;28.28;43.74;94074.88;4969499;28;8776;-62
2022/06/29 12:12:20;;;;;;;;;;;;;;;28.27;44.15;94061.59;4957644;28;7318;-62
2022/06/29 12:14:58;;;;;;;;;;;;;;;28.33;43.92;94062.22;4957564;28;7581;-62
2022/06/29 12:17:24;;;;;;;;;;;;;;;28.35;43.96;94067.94;4952468;28;7236;-61
2022/06/29 12:19:53;;;;;;;;;;;;;;;28.36;44.23;94069.44;4954782;28;6870;-62
2022/06/29 12:22:25;;;;;;;;;;;;;;;28.38;44.11;94066.88;5012581;28;8818;-62
2022/06/29 12:25:22;;;;;;;;;;;;;;;28.39;43.70;94057.28;5015979;28;7261;-62
2022/06/29 12:27:50;;;;;;;;;;;;;;;28.36;44.45;94061.88;4971599;28;9108;-62
2022/06/29 12:30:17;;;;;;;;;;;;;;;28.37;44.23;94059.84;4981920;28;7479;-62
2022/06/29 12:32:51;;;;;;;;;;;;;;;28.35;43.79;94060.41;4973774;28;7658;-62
2022/06/29 12:35:28;;;;;;;;;;;;;;;28.38;43.99;94057.84;4973926;28;7218;-62
2022/06/29 12:37:57;;;;;;;;;;;;;;;28.39;44.28;94054.53;4969889;28;9177;-62
2022/06/29 12:40:29;;;;;;;;;;;;;;;28.40;43.68;94063.56;4978134;28;7168;-62
2022/06/29 12:42:57;;;;;;;;;;;;;;;28.43;43.92;94060.47;4964313;28;6857;-62
2022/06/29 12:45:24;;;;;;;;;;;;;;;28.45;43.91;94060.66;4957493;28;9140;-62
2022/06/29 12:47:51;;;;;;;;;;;;;;;28.49;43.89;94060.34;4968867;28;7247;-62
2022/06/29 12:50:17;;;;;;;;;;;;;;;28.48;44.04;94054.06;4970111;28;9535;-62
2022/06/29 12:52:47;;;;;;;;;;;;;;;28.47;44.21;94060.88;4971006;28;7493;-62
2022/06/29 12:55:14;;;;;;;;;;;;;;;28.46;44.06;94053.88;4971529;28;7329;-62
2022/06/29 12:57:41;;;;;;;;;;;;;;;28.45;43.83;94051.66;4978781;28;7278;-62
2022/06/29 13:00:09;;;;;;;;;;;;;;;28.47;43.63;94052.56;4959083;28;8426;-62
2022/06/29 13:03:09;;;;;;;;;;;;;;;28.51;43.69;94058.53;4979834;28;7249;-62
2022/06/29 13:05:39;;;;;;;;;;;;;;;28.52;43.51;94054.47;4986983;28;7115;-61
2022/06/29 13:08:17;;;;;;;;;;;;;;;28.55;43.47;94064.47;4988039;28;7248;-62
2022/06/29 13:10:43;;;;;;;;;;;;;;;28.53;43.51;94067.03;4975056;28;7206;-62
2022/06/29 13:13:13;;;;;;;;;;;;;;;28.50;43.23;94059.06;4983758;28;7163;-62
2022/06/29 13:15:39;;;;;;;;;;;;;;;28.50;43.64;94059.81;4963614;28;7257;-62
2022/06/29 13:18:15;;;;;;;;;;;;;;;28.53;42.82;94058.00;4974514;28;7237;-62
2022/06/29 13:20:53;;;;;;;;;;;;;;;28.52;43.23;94060.00;4990506;28;9075;-62
2022/06/29 13:23:19;;;;;;;;;;;;;;;28.53;43.30;94058.75;4987240;28;7459;-62
2022/06/29 13:25:55;;;;;;;;;;;;;;;28.54;42.53;94057.44;4983585;28;8186;-62
2022/06/29 13:28:26;;;;;;;;;;;;;;;28.52;42.91;94065.53;4986317;28;6927;-62
2022/06/29 13:30:52;;;;;;;;;;;;;;;28.51;42.85;94064.06;4971075;28;7180;-62
2022/06/29 13:33:19;;;;;;;;;;;;;;;28.54;42.79;94065.75;4982810;28;9031;-62
2022/06/29 13:36:00;;;;;;;;;;;;;;;28.53;42.97;94061.50;4983571;28;7057;-62
2022/06/29 13:38:31;;;;;;;;;;;;;;;28.56;42.58;94065.94;4974226;28;7046;-62
2022/06/29 13:40:57;;;;;;;;;;;;;;;28.58;42.41;94068.22;5002366;28;7479;-62
2022/06/29 13:43:25;;;;;;;;;;;;;;;28.58;42.90;94063.41;5019169;28;9049;-62
2022/06/29 13:45:52;;;;;;;;;;;;;;;28.60;43.03;94060.13;5014608;28;7538;-62
2022/06/29 13:48:19;;;;;;;;;;;;;;;28.59;42.65;94056.63;5012932;28;7407;-62
2022/06/29 13:50:56;;;;;;;;;;;;;;;28.60;42.33;94060.84;5015685;28;7269;-61
2022/06/29 13:53:21;;;;;;;;;;;;;;;28.64;42.24;94052.97;5017333;28;8744;-62